Time;durP1;ratioP1;P1;durP2;ratioP2;P2;SDS_P1;SDS_P2;PMS_P1;PMS_P2;Temp;Humidity;BMP_temperature;BMP_pressure;BME280_temperature;BME280_humidity;BME280_pressure;Samples;Min_cycle;Max_cycle;Signal;HPM_P1;HPM_P2
2022/04/16 00:01:42;;;;;;;;;;;;;;;13.20;59.93;99990.53;4336969;33;36843;-94
2022/04/16 00:04:16;;;;;;;;;;;;;;;13.12;59.92;99992.56;4324755;33;20014;-95
2022/04/16 00:06:53;;;;;;;;;;;;;;;13.09;59.91;99993.53;4324853;33;19998;-95
2022/04/16 00:09:21;;;;;;;;;;;;;;;13.08;59.91;99983.16;4324860;33;20041;-94
2022/04/16 00:11:49;;;;;;;;;;;;;;;12.90;59.90;99984.69;4324336;33;20010;-94
2022/04/16 00:14:19;;;;;;;;;;;;;;;12.82;59.90;99978.91;4324331;32;19987;-95
2022/04/16 00:16:50;;;;;;;;;;;;;;;12.75;59.90;99969.59;4324535;33;20296;-94
2022/04/16 00:19:15;;;;;;;;;;;;;;;12.72;59.89;99974.91;4324001;33;19951;-94
2022/04/16 00:21:48;;;;;;;;;;;;;;;12.61;59.89;99972.72;4324539;33;20274;-96
2022/04/16 00:24:13;;;;;;;;;;;;;;;12.33;59.87;99978.09;4324361;33;20002;-91
2022/04/16 00:26:41;;;;;;;;;;;;;;;12.33;59.87;99974.62;4323495;33;19988;-93
2022/04/16 00:29:07;;;;;;;;;;;;;;;12.44;59.88;99983.78;4326264;33;19971;-90
2022/04/16 00:31:32;;;;;;;;;;;;;;;12.39;59.87;99977.00;4325351;33;20035;-89
2022/04/16 00:33:57;;;;;;;;;;;;;;;12.32;59.87;99975.53;4336927;33;20364;-92
2022/04/16 00:36:23;;;;;;;;;;;;;;;12.24;59.87;99979.25;4323212;33;20010;-91
2022/04/16 00:38:48;;;;;;;;;;;;;;;12.14;59.87;99985.72;4323284;33;20019;-92
2022/04/16 00:41:13;;;;;;;;;;;;;;;12.12;59.86;99979.69;4322862;33;20276;-91
2022/04/16 00:43:39;;;;;;;;;;;;;;;12.11;59.86;99983.22;4335306;33;19991;-91
2022/04/16 00:46:04;;;;;;;;;;;;;;;12.13;59.86;99977.94;4322959;33;20034;-92
2022/04/16 00:48:29;;;;;;;;;;;;;;;12.19;59.86;99967.28;4322729;33;19975;-93
2022/04/16 00:50:54;;;;;;;;;;;;;;;12.13;59.87;99973.56;4335479;33;19992;-92
2022/04/16 00:53:20;;;;;;;;;;;;;;;11.99;59.86;99960.97;4322814;33;20360;-93
2022/04/16 00:55:45;;;;;;;;;;;;;;;12.00;59.85;99961.84;4322565;33;19984;-91
2022/04/16 00:58:11;;;;;;;;;;;;;;;11.83;59.85;99957.22;4335052;33;20238;-91
2022/04/16 01:00:36;;;;;;;;;;;;;;;11.84;59.85;99951.09;4324222;33;20008;-91
2022/04/16 01:03:01;;;;;;;;;;;;;;;11.89;59.84;99951.78;4324608;33;20265;-92
2022/04/16 01:05:27;;;;;;;;;;;;;;;11.79;59.84;99946.91;4324554;33;20091;-91
2022/04/16 01:07:56;;;;;;;;;;;;;;;11.60;59.84;99950.13;4336676;33;19979;-91
2022/04/16 01:10:25;;;;;;;;;;;;;;;11.49;59.82;99943.53;4337123;33;19983;-91
2022/04/16 01:12:51;;;;;;;;;;;;;;;11.57;59.83;99929.34;4337015;33;19991;-91
2022/04/16 01:15:17;;;;;;;;;;;;;;;11.43;59.82;99936.78;4324337;33;20039;-92
2022/04/16 01:17:43;;;;;;;;;;;;;;;11.27;59.81;99946.84;4324507;33;20037;-93
2022/04/16 01:20:09;;;;;;;;;;;;;;;11.30;59.81;99940.66;4324392;33;20039;-91
2022/04/16 01:22:34;;;;;;;;;;;;;;;11.13;59.80;99946.44;4324597;33;20424;-91
2022/04/16 01:25:00;;;;;;;;;;;;;;;11.10;59.80;99948.25;4324287;33;20334;-91
2022/04/16 01:27:25;;;;;;;;;;;;;;;11.10;59.80;99943.91;4336476;33;19976;-91
2022/04/16 01:29:53;;;;;;;;;;;;;;;11.07;59.81;99939.63;4324661;33;20032;-94
2022/04/16 01:32:19;;;;;;;;;;;;;;;11.11;59.80;99934.31;4325326;33;20018;-93
2022/04/16 01:34:44;;;;;;;;;;;;;;;11.09;59.81;99936.97;4324349;33;19998;-92
2022/04/16 01:37:09;;;;;;;;;;;;;;;11.13;59.80;99928.19;4324598;33;19979;-91
2022/04/16 01:39:35;;;;;;;;;;;;;;;11.11;59.80;99935.19;4324499;33;19991;-92
2022/04/16 01:42:00;;;;;;;;;;;;;;;11.12;59.80;99933.44;4324481;33;20007;-92
2022/04/16 01:44:25;;;;;;;;;;;;;;;11.14;59.81;99935.13;4324523;33;20346;-91
2022/04/16 01:46:51;;;;;;;;;;;;;;;10.93;59.80;99940.97;4324651;33;19980;-92
2022/04/16 01:49:16;;;;;;;;;;;;;;;10.87;59.79;99947.19;4324546;33;20041;-92
2022/04/16 01:51:41;;;;;;;;;;;;;;;10.98;59.79;99949.50;4324499;33;20006;-92
2022/04/16 01:54:07;;;;;;;;;;;;;;;10.86;59.79;99955.06;4336900;33;19983;-92
2022/04/16 01:56:32;;;;;;;;;;;;;;;10.88;59.79;99948.06;4324546;33;19979;-93
2022/04/16 01:58:57;;;;;;;;;;;;;;;10.77;59.79;99951.00;4324812;33;20034;-92
2022/04/16 02:01:22;;;;;;;;;;;;;;;10.89;59.79;99949.78;4324811;33;19996;-93
2022/04/16 02:03:48;;;;;;;;;;;;;;;10.92;59.79;99958.34;4324502;33;19979;-93
2022/04/16 02:06:13;;;;;;;;;;;;;;;11.00;59.80;99972.00;4324625;33;19975;-94
2022/04/16 02:08:39;;;;;;;;;;;;;;;10.93;59.79;99973.09;4324840;32;20014;-93
2022/04/16 02:11:04;;;;;;;;;;;;;;;11.08;59.80;99971.75;4324488;33;20035;-94
2022/04/16 02:13:39;;;;;;;;;;;;;;;11.22;59.81;99969.59;4324924;33;20017;-94
2022/04/16 02:16:07;;;;;;;;;;;;;;;11.18;59.81;99975.78;4325772;33;19983;-95
2022/04/16 02:18:36;;;;;;;;;;;;;;;11.29;59.80;99970.25;4325050;33;20662;-93
2022/04/16 02:21:01;;;;;;;;;;;;;;;11.16;59.80;99961.97;4324785;32;20014;-93
2022/04/16 02:23:43;;;;;;;;;;;;;;;11.06;59.79;99961.38;4324804;33;19991;-94
2022/04/16 02:26:09;;;;;;;;;;;;;;;11.02;59.80;99964.97;4325216;33;19987;-94
2022/04/16 02:28:35;;;;;;;;;;;;;;;11.24;59.81;99959.97;4324542;33;19999;-94
2022/04/16 02:31:00;;;;;;;;;;;;;;;11.13;59.80;99956.84;4324621;33;19987;-93
2022/04/16 02:33:28;;;;;;;;;;;;;;;11.25;59.81;99953.84;4324401;33;20302;-93
2022/04/16 02:35:57;;;;;;;;;;;;;;;11.11;59.80;99958.62;4324554;33;20882;-93
2022/04/16 02:38:25;;;;;;;;;;;;;;;10.98;59.79;99955.56;4324952;33;20010;-93
2022/04/16 02:40:50;;;;;;;;;;;;;;;10.95;59.79;99947.00;4324529;33;20014;-93
2022/04/16 02:43:15;;;;;;;;;;;;;;;10.99;59.79;99946.84;4324280;33;19983;-93
2022/04/16 02:48:30;;;;;;;;;;;;;;;10.94;59.79;99940.06;4338940;32;20469;-94
2022/04/16 02:50:56;;;;;;;;;;;;;;;10.87;59.79;99939.37;4324732;33;20038;-94
2022/04/16 02:53:27;;;;;;;;;;;;;;;10.92;59.79;99934.91;4324837;33;20321;-95
2022/04/16 02:55:55;;;;;;;;;;;;;;;10.77;59.79;99936.22;4324470;33;20585;-92
2022/04/16 02:58:20;;;;;;;;;;;;;;;10.81;59.78;99941.34;4324639;33;19991;-93
2022/04/16 03:00:46;;;;;;;;;;;;;;;10.76;59.79;99931.91;4336850;33;19995;-91
2022/04/16 03:03:11;;;;;;;;;;;;;;;10.65;59.77;99941.81;4328085;33;19998;-92
2022/04/16 03:05:39;;;;;;;;;;;;;;;10.59;59.77;99935.91;4330386;33;19994;-93
2022/04/16 03:08:07;;;;;;;;;;;;;;;10.62;59.78;99947.06;4327900;33;19999;-93
2022/04/16 03:10:35;;;;;;;;;;;;;;;10.57;59.77;99933.34;4324529;33;20062;-93
2022/04/16 03:13:03;;;;;;;;;;;;;;;10.55;59.77;99937.75;4324243;33;19991;-93
2022/04/16 03:18:12;;;;;;;;;;;;;;;10.73;59.77;99934.63;4338403;33;20129;-92
2022/04/16 03:20:38;;;;;;;;;;;;;;;10.85;59.79;99930.78;4324142;33;19991;-93
2022/04/16 03:23:04;;;;;;;;;;;;;;;10.72;59.78;99938.13;4323785;33;20253;-91
2022/04/16 03:25:29;;;;;;;;;;;;;;;10.65;59.78;99940.94;4336124;33;19975;-94
2022/04/16 03:27:57;;;;;;;;;;;;;;;10.74;59.77;99944.12;4324162;33;20357;-93
2022/04/16 03:30:25;;;;;;;;;;;;;;;10.75;59.78;99939.78;4323877;33;20007;-92
2022/04/16 03:32:53;;;;;;;;;;;;;;;10.53;59.76;99942.16;4324252;33;19998;-93
2022/04/16 03:35:23;;;;;;;;;;;;;;;10.52;59.77;99939.59;4324098;33;20042;-94
2022/04/16 03:37:48;;;;;;;;;;;;;;;10.51;59.77;99943.94;4324635;33;20305;-93
2022/04/16 03:40:26;;;;;;;;;;;;;;;;;;;;;
2022/04/16 03:42:52;;;;;;;;;;;;;;;10.42;59.76;99952.88;4336822;33;35920;-92
2022/04/16 03:45:18;;;;;;;;;;;;;;;10.42;59.76;99955.47;4324120;33;19989;-93
2022/04/16 03:47:44;;;;;;;;;;;;;;;10.33;59.76;99953.13;4336197;33;20006;-92
2022/04/16 03:50:11;;;;;;;;;;;;;;;10.37;59.76;99940.87;4323983;33;19987;-94
2022/04/16 03:52:56;;;;;;;;;;;;;;;10.29;59.75;99958.44;4324022;33;19976;-92
2022/04/16 04:00:50;;;;;;;;;;;;;;;10.19;59.75;99960.44;4336656;33;19986;-92
2022/04/16 04:03:15;;;;;;;;;;;;;;;10.19;59.75;99957.81;4321402;32;20309;-93
2022/04/16 04:05:40;;;;;;;;;;;;;;;10.16;59.74;99965.69;4321234;33;20346;-93
2022/04/16 04:08:06;;;;;;;;;;;;;;;10.09;59.75;99969.34;4347869;33;20001;-93
2022/04/16 04:10:31;;;;;;;;;;;;;;;10.14;59.74;99973.53;4336157;33;20035;-92
2022/04/16 04:12:57;;;;;;;;;;;;;;;9.99;59.74;99973.09;4335755;33;20454;-93
2022/04/16 04:15:23;;;;;;;;;;;;;;;9.91;59.73;99973.28;4335733;33;20002;-93
2022/04/16 04:17:49;;;;;;;;;;;;;;;9.97;59.74;99975.75;4323718;33;20013;-94
2022/04/16 04:20:14;;;;;;;;;;;;;;;9.98;59.74;99977.44;4335835;33;20022;-93
2022/04/16 04:22:42;;;;;;;;;;;;;;;10.05;59.74;99979.00;4323694;33;20289;-94
2022/04/16 04:25:07;;;;;;;;;;;;;;;10.03;59.74;99985.97;4323969;33;19979;-95
2022/04/16 04:27:35;;;;;;;;;;;;;;;10.00;59.74;99985.22;4323656;33;20015;-93
2022/04/16 04:30:03;;;;;;;;;;;;;;;9.90;59.73;99989.78;4324804;33;19992;-93
2022/04/16 04:32:35;;;;;;;;;;;;;;;10.02;59.74;99981.66;4324248;32;20372;-94
2022/04/16 04:35:01;;;;;;;;;;;;;;;9.98;59.74;99993.06;4323217;33;19998;-92
2022/04/16 04:37:26;;;;;;;;;;;;;;;9.83;59.73;99972.63;4323213;33;20017;-92
2022/04/16 04:39:51;;;;;;;;;;;;;;;10.03;59.74;99982.53;4323430;33;20003;-93
2022/04/16 04:42:27;;;;;;;;;;;;;;;10.14;59.74;99983.09;4322310;33;20006;-94
2022/04/16 04:44:59;;;;;;;;;;;;;;;10.16;59.75;99987.34;4323440;33;20602;-93
2022/04/16 04:47:25;;;;;;;;;;;;;;;10.20;59.75;99989.91;4324365;33;20014;-94
2022/04/16 04:49:50;;;;;;;;;;;;;;;10.15;59.74;100009.06;4323559;33;20023;-93
2022/04/16 04:52:27;;;;;;;;;;;;;;;10.31;59.75;100003.50;4323556;33;19998;-92
2022/04/16 04:54:53;;;;;;;;;;;;;;;10.42;59.76;100002.31;4336168;33;19978;-95
2022/04/16 04:57:18;;;;;;;;;;;;;;;10.51;59.77;100005.56;4323409;33;19995;-92
2022/04/16 04:59:46;;;;;;;;;;;;;;;10.69;59.78;100000.69;4323725;33;19984;-94
2022/04/16 05:02:25;;;;;;;;;;;;;;;10.68;59.77;100001.59;4329544;33;19966;-94
2022/04/16 05:04:50;;;;;;;;;;;;;;;10.84;59.79;100008.94;4323858;33;20321;-92
2022/04/16 05:07:16;;;;;;;;;;;;;;;11.00;59.79;100002.41;4323687;33;20007;-93
2022/04/16 05:09:44;;;;;;;;;;;;;;;11.12;59.80;99996.84;4323716;33;19987;-94
2022/04/16 05:12:09;;;;;;;;;;;;;;;11.26;59.81;100002.47;4323160;33;19998;-92
2022/04/16 05:14:35;;;;;;;;;;;;;;;11.41;59.82;99989.88;4323169;33;19979;-93
2022/04/16 05:17:05;;;;;;;;;;;;;;;11.26;59.80;99996.41;4323207;33;19999;-95
2022/04/16 05:19:31;;;;;;;;;;;;;;;11.51;59.82;100007.75;4323673;33;20037;-92
2022/04/16 05:21:56;;;;;;;;;;;;;;;11.39;59.82;100008.16;4323118;33;19988;-96
2022/04/16 05:24:21;;;;;;;;;;;;;;;11.58;59.82;100006.66;4323355;32;20017;-94
2022/04/16 05:26:46;;;;;;;;;;;;;;;11.58;59.82;100011.00;4323374;33;19987;-95
2022/04/16 05:29:21;;;;;;;;;;;;;;;11.76;59.84;100014.78;4323593;33;20035;-94
2022/04/16 05:31:50;;;;;;;;;;;;;;;11.65;59.82;100025.59;4323823;33;20047;-93
2022/04/16 05:34:18;;;;;;;;;;;;;;;11.72;59.83;100019.25;4324010;33;19975;-93
2022/04/16 05:36:46;;;;;;;;;;;;;;;11.79;59.83;100028.62;4327235;33;20385;-93
2022/04/16 05:39:17;;;;;;;;;;;;;;;11.63;59.82;100023.03;4328565;33;19995;-93
2022/04/16 05:41:52;;;;;;;;;;;;;;;11.49;59.82;100021.75;4326727;33;19998;-94
2022/04/16 05:44:17;;;;;;;;;;;;;;;11.38;59.82;100022.94;4324180;33;19998;-94
2022/04/16 05:46:46;;;;;;;;;;;;;;;11.25;59.81;100025.97;4324199;33;19995;-95
2022/04/16 05:49:20;;;;;;;;;;;;;;;11.41;59.82;100026.34;4325966;33;20103;-94
2022/04/16 05:51:45;;;;;;;;;;;;;;;11.43;59.81;100024.56;4326611;32;19992;-94
2022/04/16 05:54:13;;;;;;;;;;;;;;;11.58;59.82;100019.69;4325031;33;20094;-92
2022/04/16 05:56:38;;;;;;;;;;;;;;;11.51;59.82;100027.75;4324861;33;19987;-93
2022/04/16 05:59:03;;;;;;;;;;;;;;;11.50;59.82;100020.84;4337493;33;20002;-93
2022/04/16 06:01:41;;;;;;;;;;;;;;;11.29;59.80;100018.00;4325114;33;20015;-96
2022/04/16 06:04:14;;;;;;;;;;;;;;;11.44;59.81;100031.47;4326244;32;19989;-95
2022/04/16 06:06:48;;;;;;;;;;;;;;;11.33;59.81;100027.41;4324939;33;19995;-94
2022/04/16 06:09:21;;;;;;;;;;;;;;;11.33;59.81;100040.44;4338803;33;19997;-95
2022/04/16 06:11:58;;;;;;;;;;;;;;;11.02;59.80;100039.66;4325933;33;20079;-95
2022/04/16 06:14:34;;;;;;;;;;;;;;;11.35;59.81;100038.66;4326307;33;20038;-95
2022/04/16 06:16:59;;;;;;;;;;;;;;;11.56;59.82;100036.28;4322601;33;20040;-93
2022/04/16 06:19:55;;;;;;;;;;;;;;;11.37;59.82;100042.09;4323682;33;19988;-96
2022/04/16 06:22:23;;;;;;;;;;;;;;;11.54;59.82;100030.28;4333763;33;19988;-96
2022/04/16 06:24:48;;;;;;;;;;;;;;;11.68;59.83;100039.38;4323402;33;20531;-96
2022/04/16 06:27:16;;;;;;;;;;;;;;;11.76;59.83;100036.50;4324168;33;20004;-96
2022/04/16 06:29:44;;;;;;;;;;;;;;;11.73;59.83;100031.41;4323756;33;19995;-95
2022/04/16 06:32:15;;;;;;;;;;;;;;;11.60;59.83;100045.75;4322922;33;19983;-96
2022/04/16 06:34:45;;;;;;;;;;;;;;;11.68;59.83;100047.19;4323392;33;20662;-95
2022/04/16 06:37:13;;;;;;;;;;;;;;;11.79;59.83;100054.69;4323125;33;19992;-96
2022/04/16 06:39:39;;;;;;;;;;;;;;;11.83;59.84;100050.22;4322755;33;19996;-94
2022/04/16 06:42:04;;;;;;;;;;;;;;;11.87;59.84;100051.88;4323013;33;20007;-94
2022/04/16 06:44:31;;;;;;;;;;;;;;;11.99;59.85;100052.28;4322890;33;19968;-96
2022/04/16 06:46:57;;;;;;;;;;;;;;;12.07;59.85;100064.25;4322929;33;20008;-94
2022/04/16 06:49:25;;;;;;;;;;;;;;;12.05;59.84;100058.22;4335350;33;20784;-94
2022/04/16 06:51:50;;;;;;;;;;;;;;;12.19;59.85;100059.47;4323095;33;20424;-95
2022/04/16 06:54:19;;;;;;;;;;;;;;;12.39;59.87;100058.78;4322653;33;20434;-95
2022/04/16 06:56:44;;;;;;;;;;;;;;;12.40;59.87;100062.25;4322370;33;20002;-95
2022/04/16 06:59:12;;;;;;;;;;;;;;;12.58;59.88;100062.47;4322600;33;20034;-94
2022/04/16 07:01:44;;;;;;;;;;;;;;;12.80;59.89;100059.09;4322235;33;19983;-94
2022/04/16 07:04:11;;;;;;;;;;;;;;;12.85;59.89;100062.41;4323035;33;19989;-93
2022/04/16 07:06:46;;;;;;;;;;;;;;;;;;;;;
2022/04/16 07:09:19;;;;;;;;;;;;;;;12.73;59.89;100052.38;4333801;33;36150;-95
2022/04/16 07:11:45;;;;;;;;;;;;;;;13.03;59.91;100064.34;4322399;33;20079;-95
2022/04/16 07:17:03;;;;;;;;;;;;;;;13.07;59.91;100070.31;4334772;33;19980;-94
2022/04/16 07:19:33;;;;;;;;;;;;;;;13.28;59.92;100066.91;4334774;33;20051;-95
2022/04/16 07:22:12;;;;;;;;;;;;;;;13.56;59.93;100064.09;4322629;33;19999;-96
2022/04/16 07:24:53;;;;;;;;;;;;;;;13.67;59.94;100061.03;4322448;33;19990;-96
2022/04/16 07:27:29;;;;;;;;;;;;;;;13.71;59.93;100060.84;4323149;33;20000;-95
2022/04/16 07:29:58;;;;;;;;;;;;;;;13.71;59.94;100068.69;4323024;33;20381;-96
2022/04/16 07:32:37;;;;;;;;;;;;;;;13.90;59.95;100067.97;4322878;33;19999;-95
2022/04/16 07:35:26;;;;;;;;;;;;;;;13.99;59.95;100068.47;4324003;33;20004;-95
2022/04/16 07:38:08;;;;;;;;;;;;;;;14.01;59.95;100073.63;4334371;33;20014;-95
2022/04/16 07:40:43;;;;;;;;;;;;;;;14.25;59.96;100072.62;4323100;33;19996;-95
2022/04/16 07:43:37;;;;;;;;;;;;;;;14.35;59.98;100073.06;4322160;33;19976;-95
2022/04/16 07:46:10;;;;;;;;;;;;;;;14.15;59.96;100079.12;4334404;33;19987;-95
2022/04/16 07:49:21;;;;;;;;;;;;;;;14.48;59.98;100076.06;4322437;33;20372;-95
2022/04/16 07:51:49;;;;;;;;;;;;;;;14.54;59.98;100079.25;4334539;33;19984;-95
2022/04/16 07:54:16;;;;;;;;;;;;;;;14.78;60.00;100074.72;4322540;33;19977;-96
2022/04/16 07:56:41;;;;;;;;;;;;;;;14.81;60.00;100077.22;4322294;33;20598;-95
2022/04/16 07:59:25;;;;;;;;;;;;;;;14.89;60.00;100076.84;4322289;33;20012;-94
2022/04/16 08:01:51;;;;;;;;;;;;;;;14.93;60.00;100078.44;4334358;33;20691;-95
2022/04/16 08:04:44;;;;;;;;;;;;;;;14.85;60.00;100094.50;4322993;33;20003;-94
2022/04/16 08:07:25;;;;;;;;;;;;;;;14.91;60.00;100077.66;4334616;33;20094;-94
2022/04/16 08:09:52;;;;;;;;;;;;;;;14.85;60.00;100084.00;4323011;33;20361;-94
2022/04/16 08:12:46;;;;;;;;;;;;;;;14.50;59.98;100098.66;4328247;33;19964;-93
2022/04/16 08:15:11;;;;;;;;;;;;;;;14.72;60.00;100086.34;4340066;33;19992;-95
2022/04/16 08:17:51;;;;;;;;;;;;;;;14.84;60.00;100094.56;4327050;32;19994;-95
2022/04/16 08:20:30;;;;;;;;;;;;;;;14.86;60.00;100087.47;4324850;33;20014;-95
2022/04/16 08:22:55;;;;;;;;;;;;;;;14.62;59.98;100092.03;4325371;33;19987;-95
2022/04/16 08:28:01;;;;;;;;;;;;;;;14.83;60.00;100098.94;4336344;33;20018;-94
2022/04/16 08:31:00;;;;;;;;;;;;;;;;;;;;;
2022/04/16 08:33:52;;;;;;;;;;;;;;;15.00;60.02;100098.22;4341236;32;35258;-94
2022/04/16 08:36:36;;;;;;;;;;;;;;;15.28;60.03;100100.44;4335961;32;19988;-94
2022/04/16 08:39:22;;;;;;;;;;;;;;;15.32;60.04;100096.75;4324875;33;20092;-95
2022/04/16 08:41:47;;;;;;;;;;;;;;;15.24;60.02;100101.50;4324641;33;19999;-93
2022/04/16 08:44:19;;;;;;;;;;;;;;;15.07;60.01;100096.16;4336286;33;20333;-93
2022/04/16 08:47:15;;;;;;;;;;;;;;;;;;;;;
2022/04/16 08:49:48;;;;;;;;;;;;;;;;;;;;;
2022/04/16 08:52:13;;;;;;;;;;;;;;;15.13;60.02;100106.38;4336496;33;36772;-92
2022/04/16 08:54:39;;;;;;;;;;;;;;;15.14;60.02;100105.44;4323499;33;20015;-94
2022/04/16 08:57:27;;;;;;;;;;;;;;;15.11;60.03;100100.34;4323465;33;20373;-94
2022/04/16 08:59:57;;;;;;;;;;;;;;;14.85;60.00;100107.59;4335971;33;19976;-94
2022/04/16 09:05:34;;;;;;;;;;;;;;;14.46;59.98;100109.34;4302366;33;20330;-94
2022/04/16 09:08:05;;;;;;;;;;;;;;;14.79;60.01;100115.75;4323588;33;20070;-94
2022/04/16 09:10:59;;;;;;;;;;;;;;;14.83;60.00;100121.69;4323551;33;20569;-95
2022/04/16 09:13:27;;;;;;;;;;;;;;;14.57;59.99;100114.94;4326938;33;20009;-95
2022/04/16 09:16:14;;;;;;;;;;;;;;;;;;;;;
2022/04/16 09:18:47;;;;;;;;;;;;;;;14.20;59.97;100124.31;4321855;33;36820;-94
2022/04/16 09:21:15;;;;;;;;;;;;;;;14.21;59.97;100125.19;4309687;33;19999;-95
2022/04/16 09:23:53;;;;;;;;;;;;;;;14.15;59.97;100123.62;4310825;33;20056;-94
2022/04/16 09:26:47;;;;;;;;;;;;;;;14.09;59.97;100124.75;4310788;33;19951;-95
2022/04/16 09:32:35;;;;;;;;;;;;;;;14.06;59.96;100131.87;4315065;33;19980;-94
2022/04/16 09:35:15;;;;;;;;;;;;;;;14.05;59.97;100124.94;4310882;33;20015;-95
2022/04/16 09:37:44;;;;;;;;;;;;;;;14.11;59.97;100127.31;4311655;33;19992;-94
2022/04/16 09:40:21;;;;;;;;;;;;;;;14.19;59.98;100126.97;4310579;33;20059;-95
2022/04/16 09:42:56;;;;;;;;;;;;;;;14.58;60.00;100124.50;4311555;33;19976;-95
2022/04/16 09:45:21;;;;;;;;;;;;;;;14.81;60.00;100129.63;4307915;33;20019;-93
2022/04/16 09:47:54;;;;;;;;;;;;;;;14.78;60.00;100110.56;4309164;33;19988;-95
2022/04/16 09:50:32;;;;;;;;;;;;;;;15.10;60.02;100114.38;4310613;33;20292;-96
2022/04/16 09:56:07;;;;;;;;;;;;;;;15.35;60.03;100115.81;4328572;33;19980;-95
2022/04/16 09:58:35;;;;;;;;;;;;;;;15.64;60.05;100109.28;4311962;33;20088;-96
2022/04/16 10:01:03;;;;;;;;;;;;;;;15.77;60.06;100113.94;4309587;33;19992;-95
2022/04/16 10:03:49;;;;;;;;;;;;;;;;;;;;;
2022/04/16 10:06:24;;;;;;;;;;;;;;;16.14;60.07;100103.38;4323707;33;38048;-95
2022/04/16 10:09:13;;;;;;;;;;;;;;;16.19;60.08;100105.75;4310909;33;20003;-96
2022/04/16 10:14:33;;;;;;;;;;;;;;;16.22;60.07;100103.81;4324832;33;19987;-96
2022/04/16 10:17:35;;;;;;;;;;;;;;;15.95;60.07;100111.28;4327545;32;20007;-95
2022/04/16 10:20:16;;;;;;;;;;;;;;;16.04;60.07;100103.88;4329252;33;19978;-95
2022/04/16 10:22:51;;;;;;;;;;;;;;;15.93;60.07;100104.41;4325596;33;20029;-94
2022/04/16 10:25:28;;;;;;;;;;;;;;;15.82;60.06;100097.03;4336529;33;19975;-94
2022/04/16 10:28:19;;;;;;;;;;;;;;;15.78;60.04;100094.63;4323768;33;20029;-94
2022/04/16 10:31:14;;;;;;;;;;;;;;;15.73;60.05;100104.50;4325271;32;20060;-94
2022/04/16 10:34:01;;;;;;;;;;;;;;;15.70;60.05;100107.28;4337362;33;19987;-95
2022/04/16 10:36:52;;;;;;;;;;;;;;;15.52;60.04;100099.31;4337904;33;20341;-95
2022/04/16 10:39:46;;;;;;;;;;;;;;;15.48;60.05;100105.63;4351559;33;20000;-94
2022/04/16 10:42:27;;;;;;;;;;;;;;;15.58;60.04;100104.28;4336670;33;19987;-94
2022/04/16 10:44:54;;;;;;;;;;;;;;;15.63;60.05;100104.94;4341724;33;19956;-94
2022/04/16 10:47:19;;;;;;;;;;;;;;;15.65;60.05;100095.22;4325566;32;19983;-92
2022/04/16 10:49:44;;;;;;;;;;;;;;;15.46;60.04;100099.59;4336621;33;20010;-94
2022/04/16 10:52:21;;;;;;;;;;;;;;;15.43;60.04;100089.25;4323885;33;20349;-95
2022/04/16 10:54:47;;;;;;;;;;;;;;;15.49;60.04;100093.34;4324144;33;19983;-92
2022/04/16 10:57:12;;;;;;;;;;;;;;;15.57;60.05;100099.94;4335947;33;20029;-91
2022/04/16 10:59:38;;;;;;;;;;;;;;;15.54;60.04;100086.97;4323567;33;19992;-93
2022/04/16 11:02:23;;;;;;;;;;;;;;;15.74;60.06;100093.09;4323916;33;20620;-93
2022/04/16 11:05:08;;;;;;;;;;;;;;;16.00;60.08;100097.94;4336515;33;19979;-94
2022/04/16 11:07:37;;;;;;;;;;;;;;;16.01;60.08;100104.87;4324029;33;20605;-94
2022/04/16 11:10:02;;;;;;;;;;;;;;;16.09;60.08;100107.12;4324086;33;20300;-92
2022/04/16 11:12:29;;;;;;;;;;;;;;;15.91;60.06;100103.62;4323654;32;19988;-93
2022/04/16 11:14:54;;;;;;;;;;;;;;;15.82;60.06;100101.44;4324022;33;19976;-94
2022/04/16 11:17:19;;;;;;;;;;;;;;;15.76;60.06;100099.97;4323400;33;19985;-94
2022/04/16 11:19:45;;;;;;;;;;;;;;;15.89;60.07;100106.34;4324215;33;20003;-93
2022/04/16 11:22:11;;;;;;;;;;;;;;;15.82;60.06;100109.31;4324011;33;20043;-93
2022/04/16 11:24:36;;;;;;;;;;;;;;;15.75;60.06;100108.75;4323772;33;20030;-94
2022/04/16 11:35:18;;;;;;;;;;;;;;;15.41;60.04;100117.34;4338376;32;19998;-94
2022/04/16 11:37:43;;;;;;;;;;;;;;;15.45;60.03;100118.87;4349728;32;20023;-93
2022/04/16 11:40:19;;;;;;;;;;;;;;;15.47;60.04;100111.78;4323814;33;20258;-94
2022/04/16 11:43:08;;;;;;;;;;;;;;;15.44;60.04;100113.72;4325024;33;19964;-95
2022/04/16 11:45:34;;;;;;;;;;;;;;;15.40;60.04;100113.00;4337296;33;19955;-93
2022/04/16 11:47:59;;;;;;;;;;;;;;;15.41;60.05;100109.47;4323919;32;20034;-94
2022/04/16 11:50:32;;;;;;;;;;;;;;;15.53;60.05;100127.25;4323764;33;20013;-93
2022/04/16 11:52:57;;;;;;;;;;;;;;;15.24;60.04;100120.72;4324272;33;20015;-94
2022/04/16 11:55:23;;;;;;;;;;;;;;;15.04;60.02;100126.84;4323469;33;20030;-94
2022/04/16 11:57:49;;;;;;;;;;;;;;;15.14;60.02;100126.44;4323551;33;19975;-93
2022/04/16 12:00:15;;;;;;;;;;;;;;;14.79;60.01;100125.37;4323600;33;19995;-93
2022/04/16 12:02:42;;;;;;;;;;;;;;;14.81;60.01;100126.16;4323610;33;20380;-94
2022/04/16 12:05:07;;;;;;;;;;;;;;;14.64;60.00;100130.34;4323983;33;20010;-93
2022/04/16 12:07:33;;;;;;;;;;;;;;;14.51;59.99;100117.84;4335531;33;19987;-92
2022/04/16 12:09:59;;;;;;;;;;;;;;;14.59;60.00;100113.97;4323269;33;20325;-92
2022/04/16 12:12:25;;;;;;;;;;;;;;;14.55;60.00;100112.41;4335624;33;19999;-93
2022/04/16 12:14:53;;;;;;;;;;;;;;;14.59;60.00;100113.97;4323457;33;20091;-94
2022/04/16 12:17:24;;;;;;;;;;;;;;;14.92;60.01;100101.19;4323322;33;19995;-94
2022/04/16 12:20:16;;;;;;;;;;;;;;;15.03;60.02;100096.31;4323571;33;20393;-93
2022/04/16 12:22:52;;;;;;;;;;;;;;;15.23;60.04;100089.31;4332329;33;19999;-94
2022/04/16 12:25:18;;;;;;;;;;;;;;;15.46;60.04;100078.63;4324134;33;19983;-94
2022/04/16 12:27:50;;;;;;;;;;;;;;;15.69;60.06;100087.22;4324244;33;20002;-94
2022/04/16 12:30:16;;;;;;;;;;;;;;;16.07;60.08;100070.44;4323729;33;20006;-94
2022/04/16 12:33:28;;;;;;;;;;;;;;;16.20;60.09;100065.44;4336036;33;20271;-96
2022/04/16 12:35:57;;;;;;;;;;;;;;;16.21;60.08;100065.34;4349139;32;19984;-94
2022/04/16 12:38:24;;;;;;;;;;;;;;;16.61;60.10;100063.34;4295939;33;945027;-95
2022/04/16 12:40:50;;;;;;;;;;;;;;;16.60;60.10;100059.00;4336328;33;19988;-92
2022/04/16 12:43:16;;;;;;;;;;;;;;;16.66;60.11;100063.97;4323352;33;20092;-93
2022/04/16 12:45:46;;;;;;;;;;;;;;;16.61;60.10;100060.72;4323703;33;19998;-96
2022/04/16 12:48:12;;;;;;;;;;;;;;;16.60;60.10;100068.66;4323705;33;20026;-93
2022/04/16 12:50:37;;;;;;;;;;;;;;;16.72;60.11;100058.38;4323467;33;19991;-94
2022/04/16 12:53:04;;;;;;;;;;;;;;;16.75;60.11;100055.59;4322960;33;20003;-90
2022/04/16 12:55:30;;;;;;;;;;;;;;;16.90;60.12;100053.09;4326436;33;19995;-95
2022/04/16 12:58:15;;;;;;;;;;;;;;;16.78;60.12;100062.47;4328927;33;19972;-94
2022/04/16 13:00:41;;;;;;;;;;;;;;;16.74;60.11;100064.41;4340051;32;20007;-94
2022/04/16 13:03:13;;;;;;;;;;;;;;;16.78;60.12;100055.44;4328922;32;20027;-96
2022/04/16 13:05:38;;;;;;;;;;;;;;;17.05;60.13;100063.66;4341371;33;20086;-96
2022/04/16 13:08:11;;;;;;;;;;;;;;;17.33;60.14;100055.13;4329986;33;20332;-96
2022/04/16 13:10:49;;;;;;;;;;;;;;;;;;;;;
2022/04/16 13:13:14;;;;;;;;;;;;;;;17.32;60.14;100042.91;4346814;32;35882;-93
2022/04/16 13:15:40;;;;;;;;;;;;;;;17.43;60.15;100051.03;4331243;33;19987;-92
2022/04/16 13:18:06;;;;;;;;;;;;;;;17.14;60.13;100038.62;4354008;32;20297;-93
2022/04/16 13:20:31;;;;;;;;;;;;;;;16.95;60.12;100045.81;4328207;33;20011;-93
2022/04/16 13:23:04;;;;;;;;;;;;;;;16.81;60.12;100046.56;4328290;33;20265;-94
2022/04/16 13:25:32;;;;;;;;;;;;;;;16.71;60.12;100048.81;4328743;33;19980;-96
2022/04/16 13:28:00;;;;;;;;;;;;;;;16.85;60.13;100051.56;4328409;32;19966;-94
2022/04/16 13:30:25;;;;;;;;;;;;;;;17.14;60.13;100049.16;4327901;33;20562;-94
2022/04/16 13:32:51;;;;;;;;;;;;;;;17.16;60.14;100053.41;4327809;33;19999;-93
2022/04/16 13:35:22;;;;;;;;;;;;;;;17.31;60.15;100056.97;4327877;33;20010;-95
2022/04/16 13:37:50;;;;;;;;;;;;;;;17.22;60.13;100046.09;4328631;33;19985;-94
2022/04/16 13:43:10;;;;;;;;;;;;;;;16.95;60.12;100056.31;4342001;33;20046;-96
2022/04/16 13:45:36;;;;;;;;;;;;;;;16.78;60.12;100050.16;4327867;33;19971;-92
2022/04/16 13:48:01;;;;;;;;;;;;;;;17.14;60.13;100049.16;4339419;33;20016;-92